createdAt,value
2022-12-17T00:01:06.835Z,20.70
2022-12-17T00:03:53.500Z,22.03
2022-12-17T00:06:42.773Z,21.00
2022-12-17T00:09:28.632Z,20.00
2022-12-17T00:12:14.684Z,20.60
2022-12-17T00:15:00.314Z,21.20
2022-12-17T00:17:46.198Z,20.10
2022-12-17T00:20:32.154Z,18.77
2022-12-17T00:23:23.031Z,20.03
2022-12-17T00:26:12.874Z,21.17
2022-12-17T00:28:58.799Z,20.27
2022-12-17T00:31:46.421Z,20.33
2022-12-17T00:34:32.881Z,24.63
2022-12-17T00:37:19.099Z,20.40
2022-12-17T00:40:04.764Z,19.57
2022-12-17T00:42:50.671Z,19.97
2022-12-17T00:45:37.823Z,20.97
2022-12-17T00:48:23.646Z,21.73
2022-12-17T00:51:09.483Z,21.47
2022-12-17T00:53:55.894Z,22.03
2022-12-17T00:56:41.626Z,20.50
2022-12-17T00:59:27.744Z,20.53
2022-12-17T01:02:13.568Z,20.73
2022-12-17T01:04:59.324Z,18.80
2022-12-17T01:07:45.280Z,19.90
2022-12-17T01:10:31.026Z,19.93
2022-12-17T01:13:16.714Z,21.40
2022-12-17T01:16:02.443Z,19.60
2022-12-17T01:18:51.372Z,19.60
2022-12-17T01:21:37.015Z,19.23
2022-12-17T01:24:23.320Z,20.93
2022-12-17T01:27:09.508Z,20.90
2022-12-17T01:29:55.657Z,20.67
2022-12-17T01:32:41.363Z,19.00
2022-12-17T01:35:27.360Z,19.53
2022-12-17T01:38:13.243Z,19.93
2022-12-17T01:40:59.203Z,20.57
2022-12-17T01:43:56.375Z,20.63
2022-12-17T01:46:44.310Z,19.97
2022-12-17T01:49:31.481Z,21.53
2022-12-17T01:52:19.561Z,21.73
2022-12-17T01:55:06.144Z,21.30
2022-12-17T01:57:53.156Z,20.43
2022-12-17T02:00:39.963Z,21.53
2022-12-17T02:03:34.634Z,19.30
2022-12-17T02:06:31.154Z,20.60
2022-12-17T02:09:19.561Z,20.10
2022-12-17T02:12:30.566Z,21.63
2022-12-17T02:15:39.245Z,21.33
2022-12-17T02:18:31.771Z,20.70
2022-12-17T02:21:19.000Z,20.37
2022-12-17T02:24:49.606Z,20.30
2022-12-17T02:27:37.075Z,20.93
2022-12-17T02:30:25.701Z,20.00
2022-12-17T02:33:13.207Z,20.70
2022-12-17T02:36:23.575Z,19.63
2022-12-17T02:39:09.120Z,20.50
2022-12-17T02:42:01.402Z,20.20
2022-12-17T02:44:49.307Z,21.60
2022-12-17T02:47:36.403Z,21.00
2022-12-17T02:50:22.811Z,20.10
2022-12-17T02:53:09.210Z,21.70
2022-12-17T02:55:55.256Z,20.87
2022-12-17T02:58:41.375Z,21.43
2022-12-17T03:01:27.298Z,20.97
2022-12-17T03:04:13.868Z,21.33
2022-12-17T03:07:14.194Z,21.20
2022-12-17T03:10:01.718Z,21.93
2022-12-17T03:12:50.079Z,22.10
2022-12-17T03:15:35.890Z,20.77
2022-12-17T03:18:21.758Z,21.73
2022-12-17T03:21:14.511Z,21.80
2022-12-17T03:24:00.253Z,20.33
2022-12-17T03:26:46.381Z,22.90
2022-12-17T03:29:34.650Z,21.97
2022-12-17T03:32:20.616Z,21.97
2022-12-17T03:35:06.585Z,22.00
2022-12-17T03:37:52.370Z,22.73
2022-12-17T03:40:38.094Z,21.60
2022-12-17T03:43:28.598Z,21.13
2022-12-17T03:46:16.287Z,21.50
2022-12-17T03:49:02.060Z,21.23
2022-12-17T03:51:47.791Z,21.73
2022-12-17T03:54:33.794Z,21.87
2022-12-17T03:57:19.359Z,22.07
2022-12-17T04:00:05.362Z,23.03
2022-12-17T04:02:58.487Z,23.33
2022-12-17T04:05:44.766Z,22.43
2022-12-17T04:08:30.639Z,22.90
2022-12-17T04:11:16.758Z,23.17
2022-12-17T04:14:02.686Z,24.27
2022-12-17T04:16:48.839Z,24.03
2022-12-17T04:19:34.842Z,24.07
2022-12-17T04:22:23.778Z,24.27
2022-12-17T04:25:09.603Z,23.97
2022-12-17T04:27:55.641Z,24.73
2022-12-17T04:30:41.652Z,23.90
2022-12-17T04:33:27.653Z,23.77
2022-12-17T04:36:13.633Z,24.00
2022-12-17T04:38:59.407Z,24.07
2022-12-17T04:41:45.397Z,23.93
2022-12-17T04:44:31.534Z,24.70
2022-12-17T04:47:17.582Z,24.83
2022-12-17T04:50:03.630Z,24.67
2022-12-17T04:52:49.610Z,23.80
2022-12-17T04:55:35.262Z,22.97
2022-12-17T04:58:25.320Z,22.97
2022-12-17T05:01:12.004Z,21.93
2022-12-17T05:03:58.595Z,23.10
2022-12-17T05:06:47.493Z,23.50
2022-12-17T05:09:33.423Z,22.47
2022-12-17T05:12:19.387Z,24.33
2022-12-17T05:15:05.246Z,24.40
2022-12-17T05:17:51.144Z,23.77
2022-12-17T05:20:36.920Z,23.53
2022-12-17T05:23:24.242Z,23.80
2022-12-17T05:26:37.780Z,24.87
2022-12-17T05:29:23.708Z,22.43
2022-12-17T05:32:09.600Z,23.53
2022-12-17T05:34:55.409Z,24.13
2022-12-17T05:37:42.824Z,23.70
2022-12-17T05:40:29.163Z,24.63
2022-12-17T05:43:23.269Z,24.97
2022-12-17T05:46:10.021Z,26.37
2022-12-17T05:48:55.722Z,24.60
2022-12-17T05:51:41.754Z,27.43
2022-12-17T05:54:27.732Z,25.50
2022-12-17T05:57:13.978Z,26.47
2022-12-17T06:00:00.191Z,25.60
2022-12-17T06:02:46.158Z,30.03
2022-12-17T06:05:32.319Z,24.87
2022-12-17T06:08:24.409Z,26.57
2022-12-17T06:11:10.102Z,26.27
2022-12-17T06:13:56.150Z,25.00
2022-12-17T06:16:42.078Z,26.27
2022-12-17T06:19:27.767Z,24.77
2022-12-17T06:22:13.665Z,24.57
2022-12-17T06:24:59.467Z,25.53
2022-12-17T06:27:45.433Z,25.23
2022-12-17T06:30:31.554Z,25.67
2022-12-17T06:33:28.394Z,25.37
2022-12-17T06:36:22.114Z,24.83
2022-12-17T06:39:08.903Z,25.77
2022-12-17T06:42:00.525Z,26.07
2022-12-17T06:44:50.004Z,25.63
2022-12-17T06:47:35.940Z,26.40
2022-12-17T06:50:22.838Z,28.43
2022-12-17T06:53:17.986Z,40.13
2022-12-17T06:56:03.597Z,30.10
2022-12-17T06:58:49.543Z,25.97
2022-12-17T07:01:35.748Z,26.17
2022-12-17T07:04:22.538Z,26.57
2022-12-17T07:07:08.389Z,27.13
2022-12-17T07:09:54.352Z,26.57
2022-12-17T07:12:40.279Z,26.50
2022-12-17T07:15:26.594Z,26.13
2022-12-17T07:18:22.731Z,26.20
2022-12-17T07:21:11.830Z,25.93
2022-12-17T07:23:57.397Z,25.93
2022-12-17T07:26:43.402Z,28.07
2022-12-17T07:29:29.446Z,25.90
2022-12-17T07:32:15.210Z,26.13
2022-12-17T07:35:00.728Z,25.33
2022-12-17T07:37:46.807Z,23.87
2022-12-17T07:40:32.485Z,25.97
2022-12-17T07:43:18.322Z,25.57
2022-12-17T07:46:04.146Z,25.57
2022-12-17T07:48:49.935Z,24.87
2022-12-17T07:51:35.878Z,25.63
2022-12-17T07:54:21.851Z,27.10
2022-12-17T07:57:07.748Z,25.50
2022-12-17T07:59:53.485Z,25.43
2022-12-17T08:02:39.517Z,25.53
2022-12-17T08:05:25.168Z,24.63
2022-12-17T08:08:11.132Z,23.77
2022-12-17T08:10:57.090Z,22.43
2022-12-17T08:13:43.079Z,21.47
2022-12-17T08:16:29.031Z,21.83
2022-12-17T08:19:14.818Z,20.80
2022-12-17T08:22:00.809Z,22.13
2022-12-17T08:24:46.361Z,22.43
2022-12-17T08:27:49.004Z,21.87
2022-12-17T08:30:34.934Z,20.53
2022-12-17T08:33:24.703Z,22.73
2022-12-17T08:36:28.234Z,20.90
2022-12-17T08:39:14.287Z,21.00
2022-12-17T08:42:04.300Z,21.03
2022-12-17T08:44:50.659Z,20.47
2022-12-17T08:47:36.554Z,20.00
2022-12-17T08:50:24.077Z,22.17
2022-12-17T08:53:17.145Z,21.07
2022-12-17T08:56:03.170Z,20.43
2022-12-17T08:58:49.101Z,21.17
2022-12-17T09:01:35.187Z,22.47
2022-12-17T09:04:20.899Z,23.10
2022-12-17T09:07:06.723Z,21.77
2022-12-17T09:09:52.657Z,21.13
2022-12-17T09:12:38.655Z,22.20
2022-12-17T09:15:25.062Z,22.90
2022-12-17T09:18:11.499Z,22.57
2022-12-17T09:20:57.338Z,22.30
2022-12-17T09:23:43.219Z,23.90
2022-12-17T09:26:29.191Z,23.10
2022-12-17T09:29:15.175Z,25.10
2022-12-17T09:32:00.843Z,23.03
2022-12-17T09:34:49.676Z,25.70
2022-12-17T09:37:35.663Z,24.17
2022-12-17T09:40:21.646Z,21.50
2022-12-17T09:43:38.858Z,21.87
2022-12-17T09:46:37.050Z,21.80
2022-12-17T09:49:45.366Z,21.33
2022-12-17T09:52:57.221Z,31.90
2022-12-17T09:56:04.907Z,21.57
2022-12-17T09:58:55.029Z,32.90
2022-12-17T10:01:43.515Z,20.47
2022-12-17T10:04:48.527Z,21.23
2022-12-17T10:07:39.091Z,20.27
2022-12-17T10:10:36.576Z,22.97
2022-12-17T10:13:31.734Z,21.27
2022-12-17T10:16:17.977Z,21.80
2022-12-17T10:19:05.116Z,22.73
2022-12-17T10:21:53.064Z,22.20
2022-12-17T10:24:58.574Z,22.80
2022-12-17T10:27:44.726Z,23.00
2022-12-17T10:30:35.063Z,22.93
2022-12-17T10:33:25.987Z,23.97
2022-12-17T10:36:11.585Z,22.37
2022-12-17T10:38:57.529Z,22.73
2022-12-17T10:41:48.558Z,22.23
2022-12-17T10:44:55.322Z,23.13
2022-12-17T10:47:44.427Z,21.47
2022-12-17T10:50:40.263Z,21.63
2022-12-17T10:53:39.274Z,20.50
2022-12-17T10:56:25.788Z,20.60
2022-12-17T10:59:12.976Z,20.07
2022-12-17T11:02:00.565Z,19.77
2022-12-17T11:04:47.970Z,19.30
2022-12-17T11:07:42.591Z,19.80
2022-12-17T11:10:39.406Z,18.33
2022-12-17T11:13:30.283Z,19.40
2022-12-17T11:16:18.279Z,22.13
2022-12-17T11:19:44.912Z,30.63
2022-12-17T11:22:57.208Z,20.00
2022-12-17T11:26:12.852Z,19.50
2022-12-17T11:28:58.811Z,21.03
2022-12-17T11:32:03.655Z,20.93
2022-12-17T11:35:14.096Z,22.10
2022-12-17T11:38:21.767Z,21.60
2022-12-17T11:41:33.596Z,20.47
2022-12-17T11:44:36.243Z,20.77
2022-12-17T11:47:36.025Z,20.40
2022-12-17T11:50:28.606Z,22.87
2022-12-17T11:53:28.131Z,22.00
2022-12-17T11:56:32.625Z,21.97
2022-12-17T11:59:54.896Z,19.73
2022-12-17T12:03:21.485Z,20.40
2022-12-17T12:06:48.849Z,20.80
2022-12-17T12:10:02.935Z,20.37
2022-12-17T12:13:10.736Z,21.83
2022-12-17T12:16:22.530Z,20.83
2022-12-17T12:19:32.559Z,23.47
2022-12-17T12:22:30.643Z,23.43
2022-12-17T12:25:35.391Z,23.93
2022-12-17T12:28:30.473Z,25.10
2022-12-17T12:31:31.121Z,24.90
2022-12-17T12:34:25.401Z,25.67
2022-12-17T12:37:11.878Z,27.00
2022-12-17T12:40:15.904Z,25.73
2022-12-17T12:43:14.591Z,25.43
2022-12-17T12:46:18.550Z,26.20
2022-12-17T12:49:15.471Z,26.13
2022-12-17T12:52:01.949Z,25.97
2022-12-17T12:54:50.692Z,29.13
2022-12-17T12:57:54.137Z,26.40
2022-12-17T13:00:51.166Z,26.77
2022-12-17T13:03:59.188Z,26.80
2022-12-17T13:06:50.761Z,27.13
2022-12-17T13:09:20.896Z,26.30
2022-12-17T13:11:53.527Z,27.07
2022-12-17T13:14:46.363Z,28.47
2022-12-17T13:17:16.684Z,27.90
2022-12-17T13:20:00.429Z,28.50
2022-12-17T13:22:29.562Z,28.70
2022-12-17T13:25:15.582Z,28.83
2022-12-17T13:27:43.951Z,29.03
2022-12-17T13:30:16.995Z,29.40
2022-12-17T13:33:17.470Z,28.57
2022-12-17T13:35:47.625Z,28.33
2022-12-17T13:38:41.875Z,29.40
2022-12-17T13:41:14.879Z,28.50
2022-12-17T13:43:56.876Z,30.73
2022-12-17T13:46:45.183Z,29.60
2022-12-17T13:49:27.649Z,28.90
2022-12-17T13:52:09.620Z,29.83
2022-12-17T13:54:38.903Z,31.30
2022-12-17T13:57:08.670Z,32.63
2022-12-17T13:59:36.159Z,31.33
2022-12-17T14:02:06.612Z,29.90
2022-12-17T14:04:33.905Z,30.23
2022-12-17T14:07:05.326Z,41.20
2022-12-17T14:09:36.718Z,31.30
2022-12-17T14:12:24.913Z,30.83
2022-12-17T14:14:56.895Z,30.70
2022-12-17T14:17:28.986Z,30.87
2022-12-17T14:20:07.064Z,29.77
2022-12-17T14:22:49.415Z,32.00
2022-12-17T14:25:28.834Z,31.70
2022-12-17T14:28:01.743Z,31.37
2022-12-17T14:30:56.367Z,31.13
2022-12-17T14:33:33.284Z,32.23
2022-12-17T14:36:06.802Z,32.80
2022-12-17T14:38:48.348Z,32.40
2022-12-17T14:41:34.897Z,32.90
2022-12-17T14:44:03.426Z,31.47
2022-12-17T14:46:32.288Z,33.90
2022-12-17T14:49:01.688Z,35.40
2022-12-17T14:51:36.334Z,33.23
2022-12-17T14:54:25.935Z,35.50
2022-12-17T14:56:55.590Z,38.50
2022-12-17T14:59:33.369Z,40.47
2022-12-17T15:02:28.109Z,40.17
2022-12-17T15:05:01.771Z,41.40
2022-12-17T15:07:32.646Z,37.07
2022-12-17T15:10:10.823Z,37.80
2022-12-17T15:12:37.998Z,39.17
2022-12-17T15:15:05.746Z,41.87
2022-12-17T15:17:32.896Z,37.27
2022-12-17T15:20:00.067Z,38.80
2022-12-17T15:22:27.322Z,38.83
2022-12-17T15:24:54.598Z,39.53
2022-12-17T15:27:21.776Z,40.20
2022-12-17T15:29:48.959Z,43.97
2022-12-17T15:32:21.116Z,41.97
2022-12-17T15:34:50.561Z,43.73
2022-12-17T15:37:21.118Z,44.00
2022-12-17T15:39:51.341Z,46.37
2022-12-17T15:42:36.937Z,48.70
2022-12-17T15:45:04.532Z,49.40
2022-12-17T15:47:31.718Z,49.10
2022-12-17T15:49:58.991Z,49.03
2022-12-17T15:52:26.319Z,47.63
2022-12-17T15:54:53.522Z,48.03
2022-12-17T15:57:20.687Z,44.53
2022-12-17T15:59:47.858Z,45.33
2022-12-17T16:02:15.858Z,45.53
2022-12-17T16:04:43.219Z,45.83
2022-12-17T16:07:10.458Z,48.23
2022-12-17T16:09:37.627Z,48.43
2022-12-17T16:12:04.947Z,49.47
2022-12-17T16:14:32.115Z,50.23
2022-12-17T16:16:59.311Z,46.37
2022-12-17T16:19:26.694Z,49.93
2022-12-17T16:21:53.864Z,39.40
2022-12-17T16:24:21.842Z,40.10
2022-12-17T16:26:49.064Z,40.13
2022-12-17T16:29:16.295Z,39.33
2022-12-17T16:31:56.848Z,33.73
2022-12-17T16:34:24.047Z,36.07
2022-12-17T16:36:51.355Z,36.10
2022-12-17T16:39:19.443Z,33.93
2022-12-17T16:41:46.928Z,36.20
2022-12-17T16:44:14.211Z,34.27
2022-12-17T16:46:43.987Z,33.20
2022-12-17T16:49:20.082Z,32.00
2022-12-17T16:51:52.375Z,31.97
2022-12-17T16:54:22.195Z,32.47
2022-12-17T16:56:49.550Z,32.63
2022-12-17T16:59:17.977Z,32.10
2022-12-17T17:01:49.128Z,36.70
2022-12-17T17:04:19.015Z,28.57
2022-12-17T17:06:50.021Z,29.10
2022-12-17T17:09:19.056Z,29.43
2022-12-17T17:11:51.519Z,29.93
2022-12-17T17:14:20.029Z,27.80
2022-12-17T17:16:47.209Z,27.93
2022-12-17T17:19:15.235Z,29.03
2022-12-17T17:21:48.458Z,28.83
2022-12-17T17:24:21.340Z,31.90
2022-12-17T17:26:50.270Z,34.40
2022-12-17T17:29:17.878Z,31.63
2022-12-17T17:34:32.675Z,34.27
2022-12-17T17:36:59.870Z,34.03
2022-12-17T17:39:27.361Z,33.77
2022-12-17T17:41:54.537Z,35.63
2022-12-17T17:44:21.726Z,37.53
2022-12-17T17:46:48.928Z,40.30
2022-12-17T17:49:17.014Z,39.53
2022-12-17T17:54:31.971Z,37.67
2022-12-17T17:57:00.603Z,38.07
2022-12-17T17:59:33.228Z,40.30
2022-12-17T18:02:02.158Z,38.33
2022-12-17T18:04:29.729Z,38.73
2022-12-17T18:09:44.220Z,40.27
2022-12-17T18:12:30.174Z,38.03
2022-12-17T18:15:13.574Z,40.00
2022-12-17T18:17:41.383Z,38.90
2022-12-17T18:20:09.651Z,38.17
2022-12-17T18:22:37.864Z,35.87
2022-12-17T18:25:05.478Z,37.57
2022-12-17T18:27:32.890Z,38.73
2022-12-17T18:30:00.039Z,41.17
2022-12-17T18:32:27.327Z,43.47
2022-12-17T18:34:54.603Z,43.57
2022-12-17T18:37:21.839Z,38.83
2022-12-17T18:39:49.233Z,39.03
2022-12-17T18:42:35.133Z,37.27
2022-12-17T18:45:05.955Z,39.17
2022-12-17T18:47:33.155Z,38.17
2022-12-17T18:50:00.340Z,39.13
2022-12-17T18:52:28.050Z,41.00
2022-12-17T18:54:55.234Z,39.43
2022-12-17T18:57:22.412Z,40.23
2022-12-17T18:59:49.661Z,38.40
2022-12-17T19:02:16.948Z,39.47
2022-12-17T19:04:44.679Z,39.33
2022-12-17T19:07:11.932Z,41.07
2022-12-17T19:09:40.562Z,39.93
2022-12-17T19:12:09.297Z,35.00
2022-12-17T19:14:36.716Z,36.10
2022-12-17T19:17:05.800Z,38.90
2022-12-17T19:19:33.131Z,44.43
2022-12-17T19:22:00.663Z,45.53
2022-12-17T19:24:28.294Z,42.50
2022-12-17T19:26:55.651Z,42.07
2022-12-17T19:29:23.526Z,42.90
2022-12-17T19:31:50.795Z,42.27
2022-12-17T19:34:19.188Z,43.47
2022-12-17T19:36:47.227Z,43.43
2022-12-17T19:39:17.299Z,41.30
2022-12-17T19:41:44.911Z,40.37
2022-12-17T19:44:16.615Z,38.97
2022-12-17T19:46:44.458Z,35.43
2022-12-17T19:49:15.700Z,36.50
2022-12-17T19:51:44.279Z,32.10
2022-12-17T19:54:17.348Z,30.63
2022-12-17T19:56:45.376Z,34.77
2022-12-17T19:59:13.623Z,34.53
2022-12-17T20:01:44.343Z,34.03
2022-12-17T20:04:13.640Z,34.63
2022-12-17T20:06:42.379Z,37.30
2022-12-17T20:09:09.570Z,36.33
2022-12-17T20:11:37.664Z,35.83
2022-12-17T20:14:10.490Z,36.80
2022-12-17T20:16:44.756Z,33.23
2022-12-17T20:19:16.555Z,33.03
2022-12-17T20:21:43.852Z,29.57
2022-12-17T20:24:14.270Z,31.30
2022-12-17T20:26:42.587Z,27.97
2022-12-17T20:29:10.802Z,30.50
2022-12-17T20:31:38.620Z,29.83
2022-12-17T20:34:08.067Z,32.67
2022-12-17T20:36:36.115Z,29.50
2022-12-17T20:39:03.992Z,30.80
2022-12-17T20:41:34.853Z,29.07
2022-12-17T20:44:07.256Z,28.70
2022-12-17T20:46:36.669Z,30.37
2022-12-17T20:49:06.868Z,29.33
2022-12-17T20:51:35.835Z,26.73
2022-12-17T20:54:04.081Z,26.50
2022-12-17T20:56:33.675Z,27.90
2022-12-17T20:59:04.306Z,27.93
2022-12-17T21:01:34.009Z,29.37
2022-12-17T21:04:02.059Z,28.77
2022-12-17T21:06:39.915Z,29.67
2022-12-17T21:09:07.778Z,27.17
2022-12-17T21:11:36.714Z,27.60
2022-12-17T21:14:09.566Z,31.50
2022-12-17T21:16:38.362Z,29.03
2022-12-17T21:19:07.644Z,26.27
2022-12-17T21:21:37.333Z,24.70
2022-12-17T21:24:05.294Z,25.23
2022-12-17T21:26:35.594Z,25.00
2022-12-17T21:29:04.771Z,26.03
2022-12-17T21:31:50.582Z,26.90
2022-12-17T21:34:23.263Z,25.43
2022-12-17T21:36:51.577Z,26.00
2022-12-17T21:39:19.715Z,26.00
2022-12-17T21:42:09.069Z,27.03
2022-12-17T21:44:36.801Z,27.50
2022-12-17T21:47:04.227Z,27.73
2022-12-17T21:49:31.760Z,27.43
2022-12-17T21:52:00.039Z,26.37
2022-12-17T21:54:27.450Z,26.90
2022-12-17T21:56:54.690Z,26.53
2022-12-17T21:59:21.939Z,26.13
2022-12-17T22:01:50.031Z,26.77
2022-12-17T22:04:17.436Z,25.73
2022-12-17T22:06:50.268Z,24.67
2022-12-17T22:09:45.100Z,23.93
2022-12-17T22:12:39.183Z,25.57
2022-12-17T22:15:08.203Z,26.13
2022-12-17T22:17:35.851Z,25.27
2022-12-17T22:20:06.999Z,25.20
2022-12-17T22:22:34.375Z,26.97
2022-12-17T22:25:07.821Z,28.13
2022-12-17T22:27:35.648Z,27.03
2022-12-17T22:30:21.411Z,26.07
2022-12-17T22:33:02.097Z,27.27
2022-12-17T22:37:24.202Z,28.50
2022-12-17T22:44:00.100Z,27.87
2022-12-17T22:44:48.073Z,27.57
2022-12-17T22:44:49.154Z,28.37
2022-12-17T22:47:12.893Z,28.70
2022-12-17T22:49:40.719Z,30.00
2022-12-17T22:52:10.720Z,30.03
2022-12-17T22:54:38.054Z,30.37
2022-12-17T22:57:34.533Z,31.30
2022-12-17T22:59:52.906Z,30.83
2022-12-17T23:02:20.161Z,34.33
2022-12-17T23:04:47.530Z,31.07
2022-12-17T23:07:14.814Z,31.50
2022-12-17T23:09:41.991Z,31.37
2022-12-17T23:12:27.539Z,32.30
2022-12-17T23:14:54.675Z,31.10
2022-12-17T23:17:21.819Z,31.73
2022-12-17T23:19:49.049Z,31.17
2022-12-17T23:22:21.788Z,30.77
2022-12-17T23:24:49.608Z,29.30
2022-12-17T23:27:16.797Z,30.80
2022-12-17T23:29:43.961Z,30.20
2022-12-17T23:32:11.341Z,32.43
2022-12-17T23:34:38.761Z,31.00
2022-12-17T23:37:05.919Z,30.03
2022-12-17T23:39:33.411Z,29.20
2022-12-17T23:42:01.039Z,30.43
2022-12-17T23:44:29.319Z,29.53
2022-12-17T23:46:56.575Z,30.33
2022-12-17T23:49:23.883Z,30.23
2022-12-17T23:51:51.118Z,29.83
2022-12-17T23:54:18.258Z,29.73
2022-12-17T23:56:46.194Z,28.43
2022-12-17T23:59:13.546Z,29.87
